Time;durP1;ratioP1;P1;durP2;ratioP2;P2;SDS_P1;SDS_P2;PMS_P1;PMS_P2;Temp;Humidity;BMP_temperature;BMP_pressure;BME280_temperature;BME280_humidity;BME280_pressure;Samples;Min_cycle;Max_cycle;Signal;HPM_P1;HPM_P2
2020/12/21 00:01:19;;;;;;;1.77;1.10;;;;;;;23.69;38.34;101893.28;5009068;28;106325;-54
2020/12/21 00:03:44;;;;;;;3.00;1.20;;;;;;;23.69;38.28;101895.97;5002665;28;97650;-54
2020/12/21 00:06:19;;;;;;;2.17;1.40;;;;;;;23.68;38.09;101894.19;5022475;22;97244;-56
2020/12/21 00:08:44;;;;;;;1.80;1.05;;;;;;;23.70;38.23;101889.69;5027142;28;97222;-57
2020/12/21 00:11:10;;;;;;;1.92;1.00;;;;;;;23.69;37.99;101887.97;5018382;28;117125;-56
2020/12/21 00:13:42;;;;;;;1.88;1.20;;;;;;;23.70;38.08;101894.16;5014363;28;97557;-56
2020/12/21 00:16:12;;;;;;;2.17;1.20;;;;;;;23.69;38.09;101890.63;5007946;28;97285;-56
2020/12/21 00:18:38;;;;;;;1.80;0.98;;;;;;;23.68;38.10;101894.19;5006719;28;96705;-56
2020/12/21 00:21:04;;;;;;;2.10;1.35;;;;;;;23.68;38.06;101894.19;5005773;28;96744;-56
2020/12/21 00:23:30;;;;;;;1.90;0.90;;;;;;;23.68;38.00;101891.53;5004693;28;97535;-56
2020/12/21 00:25:56;;;;;;;1.77;1.38;;;;;;;23.69;38.25;101887.06;5010234;28;100489;-57
2020/12/21 00:28:21;;;;;;;1.83;1.20;;;;;;;23.68;38.35;101888.88;5002823;28;96860;-56
2020/12/21 00:30:47;;;;;;;1.75;1.27;;;;;;;23.67;38.23;101887.13;5004598;28;96805;-56
2020/12/21 00:33:12;;;;;;;2.15;1.30;;;;;;;23.68;38.19;101888.88;5004633;28;97548;-56
2020/12/21 00:35:40;;;;;;;1.88;1.05;;;;;;;23.66;37.93;101882.72;5010728;28;97143;-56
2020/12/21 00:38:06;;;;;;;1.92;1.33;;;;;;;23.67;38.03;101876.47;5006785;28;97182;-56
2020/12/21 00:40:32;;;;;;;1.98;0.93;;;;;;;23.67;37.98;101878.25;4989584;28;97408;-56
2020/12/21 00:42:57;;;;;;;2.22;1.45;;;;;;;23.66;38.25;101873.84;5004909;28;97530;-56
2020/12/21 00:45:22;;;;;;;2.13;0.98;;;;;;;23.65;37.72;101878.28;4993260;28;103708;-56
2020/12/21 00:47:48;;;;;;;2.60;1.05;;;;;;;23.66;37.98;101881.84;5001313;28;96908;-56
2020/12/21 00:50:14;;;;;;;1.88;1.25;;;;;;;23.65;38.09;101883.63;5006155;28;96742;-56
2020/12/21 00:52:39;;;;;;;2.33;1.02;;;;;;;23.66;37.80;101873.84;4984304;28;98472;-56
2020/12/21 00:55:05;;;;;;;2.05;1.25;;;;;;;23.66;37.87;101884.50;5007690;28;113202;-56
2020/12/21 00:57:32;;;;;;;1.48;1.00;;;;;;;23.65;38.08;101880.94;5006905;28;97187;-56
2020/12/21 00:59:57;;;;;;;1.95;1.20;;;;;;;23.66;38.16;101877.38;5005391;28;96712;-56
2020/12/21 01:02:23;;;;;;;1.52;1.00;;;;;;;23.66;38.13;101876.53;4990411;28;97532;-56
2020/12/21 01:04:48;;;;;;;2.15;0.82;;;;;;;23.66;37.75;101877.38;5000819;28;109838;-56
2020/12/21 01:07:14;;;;;;;1.70;1.00;;;;;;;23.67;38.12;101884.47;5007312;28;97050;-56
2020/12/21 01:09:39;;;;;;;1.33;0.90;;;;;;;23.68;38.06;101883.53;5014638;28;111948;-56
2020/12/21 01:12:04;;;;;;;1.60;1.10;;;;;;;23.69;37.85;101884.41;4989283;28;126134;-56
2020/12/21 01:14:30;;;;;;;2.08;1.05;;;;;;;23.69;38.03;101882.63;4990042;28;98947;-56
2020/12/21 01:16:55;;;;;;;1.70;1.00;;;;;;;23.69;37.80;101884.41;5008362;28;97009;-56
2020/12/21 01:19:21;;;;;;;1.88;1.00;;;;;;;23.70;38.16;101886.16;5010809;28;111680;-56
2020/12/21 01:21:46;;;;;;;1.80;1.00;;;;;;;23.71;37.89;101880.81;4991899;28;100095;-56
2020/12/21 01:24:12;;;;;;;1.88;0.90;;;;;;;23.71;37.70;101872.81;5006725;28;119135;-56
2020/12/21 01:26:37;;;;;;;2.33;1.30;;;;;;;23.72;37.85;101877.22;5010093;28;96743;-56
2020/12/21 01:29:03;;;;;;;1.83;1.05;;;;;;;23.72;37.66;101869.22;4989632;28;101920;-56
2020/12/21 01:31:28;;;;;;;1.40;1.00;;;;;;;23.74;37.67;101878.06;5010627;28;97525;-56
2020/12/21 01:33:53;;;;;;;1.38;0.85;;;;;;;23.75;37.76;101879.81;5007177;28;97178;-56
2020/12/21 01:36:20;;;;;;;1.42;0.80;;;;;;;23.75;37.59;101879.81;5007896;28;96715;-56
2020/12/21 01:38:46;;;;;;;1.67;1.00;;;;;;;23.76;37.51;101870.91;4987362;28;97370;-56
2020/12/21 01:41:11;;;;;;;1.55;0.95;;;;;;;23.77;37.63;101872.63;4988947;28;97489;-56
2020/12/21 01:43:37;;;;;;;1.48;0.93;;;;;;;23.79;37.43;101882.41;5008110;28;113600;-56
2020/12/21 01:46:10;;;;;;;1.80;1.48;;;;;;;23.77;37.38;101877.97;4988939;28;97059;-57
2020/12/21 01:48:36;;;;;;;1.25;0.90;;;;;;;23.79;37.67;101877.06;4986000;28;96758;-56
2020/12/21 01:51:05;;;;;;;2.05;1.05;;;;;;;23.80;37.82;101871.75;5000590;28;98997;-56
2020/12/21 01:53:34;;;;;;;2.20;1.08;;;;;;;23.80;37.85;101877.06;4973761;28;98758;-56
2020/12/21 01:55:59;;;;;;;1.98;1.52;;;;;;;23.80;37.42;101877.06;4992461;28;96783;-56
2020/12/21 01:58:25;;;;;;;1.60;0.90;;;;;;;23.81;37.28;101877.94;4979837;28;97834;-56
2020/12/21 02:00:50;;;;;;;1.80;1.15;;;;;;;23.81;37.36;101880.59;5000078;28;125471;-53
2020/12/21 02:03:16;;;;;;;1.15;0.75;;;;;;;23.82;37.29;101885.03;5010177;28;97270;-53
2020/12/21 02:05:41;;;;;;;1.95;1.00;;;;;;;23.82;37.37;101882.34;4975643;28;97042;-53
2020/12/21 02:08:07;;;;;;;1.67;0.90;;;;;;;23.82;37.39;101883.22;5003274;28;97037;-53
2020/12/21 02:10:32;;;;;;;1.92;1.20;;;;;;;23.83;37.54;101886.75;5008427;28;127872;-53
2020/12/21 02:12:57;;;;;;;1.27;0.80;;;;;;;23.83;37.23;101886.75;4984543;28;118243;-53
2020/12/21 02:15:23;;;;;;;1.52;0.90;;;;;;;23.83;37.15;101878.75;5005523;28;116900;-53
2020/12/21 02:17:48;;;;;;;2.40;0.90;;;;;;;23.83;37.27;101884.09;5004504;28;115266;-53
2020/12/21 02:20:14;;;;;;;1.50;0.98;;;;;;;23.84;37.19;101885.84;4981275;28;127286;-53
2020/12/21 02:22:39;;;;;;;2.45;1.08;;;;;;;23.83;37.44;101882.31;4985247;28;97297;-53
2020/12/21 02:25:05;;;;;;;1.80;1.05;;;;;;;23.83;37.49;101881.41;5004045;28;116927;-53
2020/12/21 02:27:30;;;;;;;1.10;0.90;;;;;;;23.84;37.32;101886.72;4984979;28;114703;-53
2020/12/21 02:29:55;;;;;;;1.83;0.93;;;;;;;23.83;37.14;101876.09;5009971;28;97586;-53
2020/12/21 02:32:21;;;;;;;1.50;0.80;;;;;;;23.84;37.04;101877.84;4977169;28;126513;-53
2020/12/21 02:34:46;;;;;;;2.33;0.80;;;;;;;23.84;37.09;101880.53;5000218;28;116977;-53
2020/12/21 02:37:12;;;;;;;1.98;0.85;;;;;;;23.84;37.36;101877.84;5002006;28;97193;-53
2020/12/21 02:39:37;;;;;;;1.90;1.30;;;;;;;23.84;37.25;101876.06;5002802;28;101086;-53
2020/12/21 02:42:02;;;;;;;1.45;0.82;;;;;;;23.85;37.13;101879.59;5000137;28;126525;-53
2020/12/21 02:44:28;;;;;;;2.03;0.90;;;;;;;23.85;37.06;101871.59;5001986;28;116822;-53
2020/12/21 02:46:53;;;;;;;1.15;0.70;;;;;;;23.85;37.18;101869.81;5002291;28;97283;-53
2020/12/21 02:49:19;;;;;;;1.30;0.75;;;;;;;23.85;36.92;101874.25;5002252;28;126974;-53
2020/12/21 02:51:44;;;;;;;1.50;0.80;;;;;;;23.85;37.28;101872.50;4981095;28;129169;-53
2020/12/21 02:54:10;;;;;;;2.00;0.95;;;;;;;23.86;36.90;101876.88;5005452;28;117986;-53
2020/12/21 02:56:35;;;;;;;2.05;1.08;;;;;;;23.85;36.86;101875.16;4997560;28;96709;-53
2020/12/21 02:59:00;;;;;;;1.70;0.73;;;;;;;23.86;36.88;101871.56;4985501;28;125860;-53
2020/12/21 03:01:26;;;;;;;1.50;1.00;;;;;;;23.87;37.11;101865.31;5004645;28;127820;-53
2020/12/21 03:03:51;;;;;;;1.90;0.70;;;;;;;23.87;36.98;101864.47;4972350;28;97284;-53
2020/12/21 03:06:17;;;;;;;1.65;0.90;;;;;;;23.88;37.15;101863.53;4991228;28;96905;-53
2020/12/21 03:08:42;;;;;;;1.52;0.95;;;;;;;23.88;36.93;101860.88;5008164;28;126678;-53
2020/12/21 03:11:09;;;;;;;1.38;0.80;;;;;;;23.88;37.00;101863.53;5008193;28;127155;-53
2020/12/21 03:13:34;;;;;;;1.00;0.73;;;;;;;23.88;37.04;101856.41;5004034;28;96679;-53
2020/12/21 03:16:00;;;;;;;2.42;1.05;;;;;;;23.88;36.98;101851.06;5009536;28;96836;-54
2020/12/21 03:18:25;;;;;;;1.80;0.63;;;;;;;23.89;37.17;101844.84;4986591;28;126871;-53
2020/12/21 03:20:50;;;;;;;1.35;1.20;;;;;;;23.88;36.88;101848.41;4986235;28;126638;-53
2020/12/21 03:23:16;;;;;;;1.20;0.80;;;;;;;23.89;36.60;101852.84;5002786;28;97564;-53
2020/12/21 03:25:41;;;;;;;2.00;0.95;;;;;;;23.89;37.01;101852.84;5001989;28;102398;-53
2020/12/21 03:28:07;;;;;;;1.95;0.60;;;;;;;23.89;36.87;101854.63;4992231;28;127212;-53
2020/12/21 03:30:32;;;;;;;1.67;0.95;;;;;;;23.89;37.01;101849.31;5001611;28;126573;-53
2020/12/21 03:32:58;;;;;;;1.85;0.80;;;;;;;23.89;36.68;101855.50;4990400;28;115089;-53
2020/12/21 03:35:23;;;;;;;1.75;0.77;;;;;;;23.89;36.68;101858.16;4987408;28;96875;-53
2020/12/21 03:37:49;;;;;;;1.17;0.77;;;;;;;23.88;36.56;101845.75;5004414;28;119854;-53
2020/12/21 03:40:14;;;;;;;1.63;0.77;;;;;;;23.88;36.53;101844.88;5001480;28;127000;-53
2020/12/21 03:42:39;;;;;;;1.27;0.80;;;;;;;23.88;36.68;101845.75;4988472;28;117568;-53
2020/12/21 03:45:05;;;;;;;1.48;0.90;;;;;;;23.89;36.82;101849.31;5000255;28;97033;-53
2020/12/21 03:47:30;;;;;;;1.60;0.75;;;;;;;23.88;36.74;101855.53;4999537;28;127300;-53
2020/12/21 03:49:56;;;;;;;1.30;0.80;;;;;;;23.89;36.65;101863.50;4994956;28;126634;-53
2020/12/21 03:52:21;;;;;;;0.98;0.75;;;;;;;23.89;36.88;101859.97;4999189;28;98336;-53
2020/12/21 03:54:47;;;;;;;1.27;0.75;;;;;;;23.88;36.80;101859.06;5007079;28;96719;-53
2020/12/21 03:57:12;;;;;;;1.27;0.88;;;;;;;23.89;36.67;101854.63;4996380;28;117653;-53
2020/12/21 03:59:37;;;;;;;1.40;0.82;;;;;;;23.89;36.67;101849.31;4998697;28;126596;-53
2020/12/21 04:02:03;;;;;;;1.23;0.73;;;;;;;23.89;36.42;101836.84;5001411;28;96745;-53
2020/12/21 04:04:28;;;;;;;1.17;0.60;;;;;;;23.89;36.56;101839.50;4999430;28;97265;-53
2020/12/21 04:06:54;;;;;;;1.20;0.82;;;;;;;23.89;36.46;101835.97;4983139;28;126587;-53
2020/12/21 04:09:19;;;;;;;1.05;0.75;;;;;;;23.89;36.54;101834.19;5001768;28;109456;-53
2020/12/21 04:11:45;;;;;;;1.15;0.70;;;;;;;23.89;36.60;101828.00;5000545;28;109259;-53
2020/12/21 04:14:10;;;;;;;1.48;0.80;;;;;;;23.89;36.72;101836.84;5003050;28;97362;-53
2020/12/21 04:16:36;;;;;;;1.40;0.98;;;;;;;23.90;36.22;101837.72;4993793;28;125587;-53
2020/12/21 04:19:02;;;;;;;1.20;0.90;;;;;;;23.90;36.61;101837.72;5000562;28;97085;-53
2020/12/21 04:21:28;;;;;;;1.63;0.82;;;;;;;23.89;36.31;101835.97;4988838;28;96865;-53
2020/12/21 04:23:54;;;;;;;0.95;0.70;;;;;;;23.89;36.50;101836.84;5006596;28;96810;-53
2020/12/21 04:26:19;;;;;;;1.65;0.60;;;;;;;23.89;36.37;101836.84;5007000;28;97814;-53
2020/12/21 04:28:45;;;;;;;1.60;0.80;;;;;;;23.90;36.23;101829.72;5000726;28;126483;-53
2020/12/21 04:31:10;;;;;;;1.58;0.73;;;;;;;23.90;36.68;101827.94;4984876;28;96868;-53
2020/12/21 04:33:35;;;;;;;1.65;0.75;;;;;;;23.89;36.48;101833.31;4979084;28;97213;-53
2020/12/21 04:36:01;;;;;;;1.17;1.02;;;;;;;23.89;36.44;101826.19;4996895;28;97531;-53
2020/12/21 04:38:26;;;;;;;1.63;0.80;;;;;;;23.89;36.41;101823.53;5007418;28;126767;-53
2020/12/21 04:40:54;;;;;;;1.73;1.08;;;;;;;23.89;36.42;101817.34;5005278;28;117062;-53
2020/12/21 04:43:19;;;;;;;2.20;0.80;;;;;;;23.89;36.36;101817.34;5005790;28;97228;-53
2020/12/21 04:45:44;;;;;;;1.38;0.63;;;;;;;23.88;36.27;101803.13;4972197;28;125581;-53
2020/12/21 04:48:14;;;;;;;1.35;0.70;;;;;;;23.89;36.12;101806.69;4991766;28;127089;-53
2020/12/21 04:50:39;;;;;;;1.88;0.77;;;;;;;23.89;36.16;101802.22;4992540;28;116993;-53
2020/12/21 04:53:04;;;;;;;1.60;0.88;;;;;;;23.88;36.15;101805.78;4973389;28;97204;-53
2020/12/21 04:55:31;;;;;;;1.35;0.80;;;;;;;23.88;36.24;101808.44;4967944;28;126847;-53
2020/12/21 04:58:03;;;;;;;1.02;0.60;;;;;;;23.89;36.34;101801.34;4985056;28;98057;-53
2020/12/21 05:00:32;;;;;;;1.75;0.80;;;;;;;23.89;36.22;101801.34;5002479;28;97304;-53
2020/12/21 05:02:58;;;;;;;1.75;0.73;;;;;;;23.89;35.96;101793.34;4985554;28;98993;-53
2020/12/21 05:05:50;;;;;;;1.40;0.80;;;;;;;23.87;36.22;101797.84;5003599;28;98292;-53
2020/12/21 05:08:24;;;;;;;1.30;0.73;;;;;;;23.88;36.17;101792.47;4997126;28;97442;-53
2020/12/21 05:11:00;;;;;;;1.50;0.98;;;;;;;23.88;36.29;101788.94;5009135;28;96809;-53
2020/12/21 05:13:29;;;;;;;1.05;0.60;;;;;;;23.89;36.21;101793.34;4991216;28;96791;-53
2020/12/21 05:15:55;;;;;;;1.65;1.25;;;;;;;23.89;36.23;101783.56;4988728;28;119254;-53
2020/12/21 05:18:25;;;;;;;0.90;0.57;;;;;;;23.89;35.91;101786.22;4957824;28;99324;-53
2020/12/21 05:20:59;;;;;;;1.83;0.77;;;;;;;23.89;35.86;101778.22;5007690;28;96942;-53
2020/12/21 05:23:24;;;;;;;1.77;0.60;;;;;;;23.90;36.28;101780.00;5005132;28;96743;-53
2020/12/21 05:26:06;;;;;;;1.67;1.05;;;;;;;23.90;35.97;101776.44;5002848;28;97581;-53
2020/12/21 05:28:40;;;;;;;0.80;0.60;;;;;;;23.89;35.91;101764.91;5003467;28;127135;-53
2020/12/21 05:31:10;;;;;;;1.00;0.60;;;;;;;23.90;36.03;101766.69;5001856;28;98836;-53
2020/12/21 05:33:42;;;;;;;0.85;0.60;;;;;;;23.90;36.05;101777.31;4982761;28;99124;-53
2020/12/21 05:36:09;;;;;;;0.90;0.40;;;;;;;23.91;36.18;101776.41;4952086;28;99659;-53
2020/12/21 05:38:35;;;;;;;1.02;0.73;;;;;;;23.91;35.76;101780.84;4988307;28;97397;-53
2020/12/21 05:41:27;;;;;;;1.10;0.70;;;;;;;23.88;35.87;101765.81;5004274;28;115716;-53
2020/12/21 05:43:53;;;;;;;1.45;0.68;;;;;;;23.91;36.13;101757.75;5002537;28;96851;-53
2020/12/21 05:46:20;;;;;;;1.08;0.50;;;;;;;23.92;36.03;101767.50;5005221;28;96919;-53
2020/12/21 05:48:47;;;;;;;1.10;0.80;;;;;;;23.91;35.72;101751.56;4983652;28;97982;-53
2020/12/21 05:51:23;;;;;;;1.25;0.70;;;;;;;23.89;36.03;101754.25;5005830;28;96762;-53
2020/12/21 05:53:51;;;;;;;1.00;0.70;;;;;;;23.90;35.67;101753.34;5007039;28;96715;-53
2020/12/21 05:56:17;;;;;;;0.90;0.50;;;;;;;23.92;35.82;101763.94;4962828;28;98749;-53
2020/12/21 05:58:42;;;;;;;1.13;0.60;;;;;;;23.91;35.69;101752.41;4984313;28;126740;-53
2020/12/21 06:01:10;;;;;;;1.73;0.70;;;;;;;23.91;35.89;101754.22;4985982;28;116969;-53
2020/12/21 06:03:38;;;;;;;1.42;0.90;;;;;;;23.91;35.64;101762.22;5002703;28;96981;-53
2020/12/21 06:06:11;;;;;;;2.10;1.15;;;;;;;23.89;35.84;101764.06;4995154;22;98606;-57
2020/12/21 06:08:36;;;;;;;1.08;0.65;;;;;;;23.90;35.92;101771.09;4981834;28;98832;-57
2020/12/21 06:11:17;;;;;;;1.17;0.75;;;;;;;23.90;35.86;101763.09;5020945;28;96964;-56
2020/12/21 06:13:59;;;;;;;1.08;0.60;;;;;;;23.88;35.80;101764.94;5013033;28;97036;-57
2020/12/21 06:16:27;;;;;;;1.25;0.65;;;;;;;23.88;35.48;101763.16;5002544;28;97490;-56
2020/12/21 06:19:14;;;;;;;1.00;0.55;;;;;;;23.87;35.92;101765.88;5027096;28;97225;-57
2020/12/21 06:21:49;;;;;;;0.95;0.50;;;;;;;23.90;35.67;101763.09;5004680;28;114328;-56
2020/12/21 06:24:15;;;;;;;0.80;0.60;;;;;;;23.90;35.71;101761.34;5009224;28;96938;-57
2020/12/21 06:26:41;;;;;;;1.20;0.63;;;;;;;23.90;35.58;101765.78;5024750;28;97380;-56
2020/12/21 06:29:10;;;;;;;1.13;0.60;;;;;;;23.89;35.39;101758.72;5026932;28;122762;-56
2020/12/21 06:31:39;;;;;;;1.30;0.55;;;;;;;23.89;35.41;101756.06;5021132;28;96871;-56
2020/12/21 06:34:05;;;;;;;0.82;0.50;;;;;;;23.90;35.35;101760.44;5027018;28;98331;-57
2020/12/21 06:36:31;;;;;;;0.95;0.50;;;;;;;23.90;35.58;101755.13;5026403;28;97487;-56
2020/12/21 06:38:57;;;;;;;1.45;0.40;;;;;;;23.91;35.54;101751.56;5024742;28;97358;-56
2020/12/21 06:41:24;;;;;;;1.02;0.80;;;;;;;23.91;35.75;101752.41;5026188;28;96838;-57
2020/12/21 06:44:03;;;;;;;1.08;0.40;;;;;;;23.90;35.57;101752.44;5006430;28;97056;-57
2020/12/21 06:46:29;;;;;;;1.92;0.70;;;;;;;23.92;35.71;101750.63;5021030;28;97781;-57
2020/12/21 06:49:11;;;;;;;0.90;0.60;;;;;;;23.91;35.47;101748.88;5008062;28;99564;-56
2020/12/21 06:51:40;;;;;;;0.90;0.65;;;;;;;23.91;35.33;101747.09;5025285;28;96851;-56
2020/12/21 06:54:05;;;;;;;1.20;0.52;;;;;;;23.92;35.48;101739.97;5029362;28;96774;-57
2020/12/21 06:56:31;;;;;;;1.02;0.52;;;;;;;23.91;35.66;101741.75;5003104;28;97904;-56
2020/12/21 06:58:57;;;;;;;1.25;0.60;;;;;;;23.91;35.21;101744.41;5003483;28;99219;-57
2020/12/21 07:01:23;;;;;;;0.63;0.43;;;;;;;23.92;35.53;101750.63;5001485;28;96808;-56
2020/12/21 07:03:49;;;;;;;1.55;0.63;;;;;;;23.92;35.29;101750.63;5024260;28;96721;-57
2020/12/21 07:06:14;;;;;;;1.48;0.60;;;;;;;23.91;35.50;101749.75;5029392;28;97660;-57
2020/12/21 07:08:41;;;;;;;1.50;0.63;;;;;;;23.92;35.25;101753.28;5006535;28;97253;-57
2020/12/21 07:11:07;;;;;;;1.15;0.60;;;;;;;23.92;35.35;101754.19;5021003;28;96933;-56
2020/12/21 07:13:32;;;;;;;0.95;0.52;;;;;;;23.93;35.21;101749.72;4987299;28;96931;-57
2020/12/21 07:16:00;;;;;;;2.65;0.77;;;;;;;23.91;35.20;101752.41;4981795;28;98827;-56
2020/12/21 07:18:25;;;;;;;0.75;0.40;;;;;;;23.91;35.54;101752.41;5014902;28;109305;-57
2020/12/21 07:20:50;;;;;;;2.22;0.80;;;;;;;23.91;35.57;101751.56;5025819;28;117195;-56
2020/12/21 07:23:16;;;;;;;1.52;0.60;;;;;;;23.91;35.24;101747.09;5000615;28;96759;-56
2020/12/21 07:25:50;;;;;;;1.30;0.70;;;;;;;23.91;35.47;101748.88;5004177;28;126804;-57
2020/12/21 07:28:25;;;;;;;0.95;0.55;;;;;;;23.89;35.54;101743.59;5008256;28;98985;-57
2020/12/21 07:30:50;;;;;;;1.23;0.90;;;;;;;23.89;35.30;101745.41;5023551;28;97242;-57
2020/12/21 07:33:16;;;;;;;0.98;0.68;;;;;;;23.90;35.48;101755.13;5025574;28;96984;-57
2020/12/21 07:35:42;;;;;;;0.80;0.55;;;;;;;23.89;35.17;101743.59;5024107;28;126767;-57
2020/12/21 07:38:11;;;;;;;0.80;0.60;;;;;;;23.89;35.33;101742.72;5023543;28;99433;-57
2020/12/21 07:40:37;;;;;;;1.10;0.60;;;;;;;23.90;35.38;101741.78;4985055;28;97771;-56
2020/12/21 07:43:02;;;;;;;1.50;0.70;;;;;;;23.90;35.15;101732.03;5023625;28;96890;-57
2020/12/21 07:45:28;;;;;;;1.33;0.80;;;;;;;23.90;35.04;101733.81;5010279;28;97381;-57
2020/12/21 07:47:54;;;;;;;1.00;0.70;;;;;;;23.91;35.25;101730.25;5008605;28;126585;-57
2020/12/21 07:50:19;;;;;;;1.20;0.82;;;;;;;23.90;35.23;101724.03;5024725;28;110702;-57
2020/12/21 07:52:44;;;;;;;0.88;0.60;;;;;;;23.91;35.31;101720.44;4988999;28;96856;-56
2020/12/21 07:55:11;;;;;;;1.35;0.63;;;;;;;23.92;35.14;101723.97;4991865;28;117156;-57
2020/12/21 07:57:36;;;;;;;0.70;0.50;;;;;;;23.91;35.40;101723.09;5006523;28;97723;-57
2020/12/21 08:00:02;;;;;;;1.00;0.60;;;;;;;23.91;35.50;101712.44;5010551;28;117348;-57
2020/12/21 08:02:30;;;;;;;0.90;0.50;;;;;;;23.92;35.22;101715.97;5008826;28;97002;-57
2020/12/21 08:04:57;;;;;;;1.13;0.70;;;;;;;23.93;35.02;101712.41;4993806;28;126841;-57
2020/12/21 08:07:28;;;;;;;1.00;0.40;;;;;;;23.93;35.02;101717.72;5026039;28;97221;-56
2020/12/21 08:09:54;;;;;;;1.33;0.55;;;;;;;23.93;35.22;101707.09;5022718;28;96854;-57
2020/12/21 08:12:20;;;;;;;2.15;0.70;;;;;;;23.93;35.40;101710.59;5006829;28;97011;-56
2020/12/21 08:14:46;;;;;;;1.10;0.60;;;;;;;23.93;34.90;101709.75;5024922;28;98589;-56
2020/12/21 08:17:18;;;;;;;1.40;0.63;;;;;;;23.92;35.40;101707.97;5013667;28;97973;-56
2020/12/21 08:19:54;;;;;;;0.75;0.50;;;;;;;23.92;35.13;101705.31;5024965;28;96817;-56
2020/12/21 08:22:26;;;;;;;1.63;0.73;;;;;;;23.92;35.25;101711.53;5025107;28;96613;-56
2020/12/21 08:25:09;;;;;;;1.00;0.50;;;;;;;23.93;34.95;101709.75;5028606;28;97377;-56
2020/12/21 08:27:34;;;;;;;0.70;0.47;;;;;;;23.93;35.07;101709.75;5007601;28;97159;-56
2020/12/21 08:30:12;;;;;;;0.90;0.60;;;;;;;23.92;35.21;101702.66;5025023;28;115602;-56
2020/12/21 15:28:26;;;;;;;1.10;0.77;;;;;;;19.54;43.13;100978.38;5035229;27;96853;-51
2020/12/21 15:30:52;;;;;;;2.67;0.82;;;;;;;19.94;42.97;100981.91;4987214;27;323807;-54
2020/12/21 15:33:17;;;;;;;3.03;0.85;;;;;;;20.48;42.35;100981.44;5008565;28;96965;-54
2020/12/21 15:35:43;;;;;;;2.65;0.80;;;;;;;21.03;41.65;100965.81;5000787;28;97256;-54
2020/12/21 15:38:08;;;;;;;2.45;0.77;;;;;;;21.52;40.39;100957.34;5008989;28;109944;-54
